Marcus, South Dakota
Current Conditions -  °F | °C
As of 4:58 AM on Sunday 23 Nov 2014 (Local Time) from KRCA Reporting Station
Clear Clear  
Wind Chill: 25°   Ceiling: Unl
Heat Index: 36°   Visibility: 10mi
Dew Point: 19°   Wind: 21mph
Humidity: 51%   Direction: 330°NNW
Pressure: 29.62"   Gusts: NA
Location:  44.4145°N, 103.17°W
Report Text: KRCA 231158Z AUTO 33018KT 10SM CLR 02/M07 A2962 RMK AO2 SLP046 T00211071 10055 20010 51017 $
Loading
Personal Weather Stations






























Interactive Weather Map New forecast layout! Learn more

10-Day Weather Forecast

Advertisements
Track Severe Weather on mobile